createdAt,value
2018-06-02T00:04:26.844Z,17.10
2018-06-02T00:07:15.211Z,17.10
2018-06-02T00:09:45.259Z,17.10
2018-06-02T00:12:18.145Z,17.10
2018-06-02T00:14:47.819Z,17.10
2018-06-02T00:17:21.068Z,17.10
2018-06-02T00:19:50.932Z,17.10
2018-06-02T00:22:20.364Z,17.10
2018-06-02T00:24:49.584Z,17.20
2018-06-02T00:27:21.336Z,17.20
2018-06-02T00:29:50.761Z,17.10
2018-06-02T00:32:20.447Z,17.10
2018-06-02T00:34:49.830Z,17.10
2018-06-02T00:39:54.365Z,17.10
2018-06-02T00:42:25.126Z,17.10
2018-06-02T00:44:54.484Z,17.10
2018-06-02T00:47:27.604Z,17.10
2018-06-02T00:49:58.412Z,17.10
2018-06-02T00:52:31.969Z,17.10
2018-06-02T00:55:07.668Z,17.10
2018-06-02T00:57:37.406Z,17.00
2018-06-02T01:00:07.741Z,17.00
2018-06-02T01:02:37.366Z,17.10
2018-06-02T01:05:09.999Z,17.10
2018-06-02T01:07:39.479Z,17.00
2018-06-02T01:10:08.611Z,17.00
2018-06-02T01:12:43.562Z,16.90
2018-06-02T01:15:12.698Z,16.90
2018-06-02T01:17:49.695Z,16.90
2018-06-02T01:20:19.265Z,16.90
2018-06-02T01:22:50.440Z,16.90
2018-06-02T01:25:23.669Z,16.90
2018-06-02T01:27:53.199Z,16.90
2018-06-02T01:30:34.651Z,16.90
2018-06-02T01:33:04.554Z,17.00
2018-06-02T01:35:40.806Z,17.00
2018-06-02T01:38:10.603Z,17.00
2018-06-02T01:40:41.969Z,17.00
2018-06-02T01:43:11.981Z,16.90
2018-06-02T01:45:48.656Z,16.90
2018-06-02T01:48:18.954Z,16.90
2018-06-02T01:50:48.479Z,16.90
2018-06-02T01:53:23.645Z,16.90
2018-06-02T01:58:27.556Z,16.90
2018-06-02T02:00:59.514Z,16.90
2018-06-02T02:03:28.894Z,16.90
2018-06-02T02:05:58.970Z,16.90
2018-06-02T02:08:27.150Z,17.00
2018-06-02T02:10:59.865Z,17.00
2018-06-02T02:13:28.416Z,16.90
2018-06-02T02:16:01.027Z,16.90
2018-06-02T02:18:29.778Z,17.00
2018-06-02T02:21:00.519Z,17.00
2018-06-02T02:23:29.463Z,17.10
2018-06-02T02:26:01.640Z,17.00
2018-06-02T02:28:30.555Z,17.00
2018-06-02T02:31:01.250Z,16.90
2018-06-02T02:33:30.895Z,17.00
2018-06-02T02:36:01.760Z,17.10
2018-06-02T02:38:30.352Z,17.10
2018-06-02T02:40:59.545Z,17.10
2018-06-02T02:43:28.548Z,17.20
2018-06-02T02:46:02.194Z,17.20
2018-06-02T02:48:31.478Z,17.10
2018-06-02T02:53:37.245Z,17.10
2018-06-02T02:56:17.161Z,17.00
2018-06-02T02:58:46.604Z,17.10
2018-06-02T03:01:29.194Z,17.10
2018-06-02T03:03:58.569Z,17.00
2018-06-02T03:06:33.298Z,17.10
2018-06-02T03:09:02.160Z,17.10
2018-06-02T03:11:31.778Z,17.10
2018-06-02T03:14:01.497Z,17.10
2018-06-02T03:16:31.883Z,17.10
2018-06-02T03:19:05.313Z,17.10
2018-06-02T03:21:34.578Z,17.10
2018-06-02T03:24:03.805Z,17.10
2018-06-02T03:26:43.196Z,17.20
2018-06-02T03:29:12.462Z,17.20
2018-06-02T03:31:43.633Z,17.20
2018-06-02T03:34:12.441Z,17.20
2018-06-02T03:36:41.801Z,17.20
2018-06-02T03:39:10.859Z,17.20
2018-06-02T03:41:39.524Z,17.20
2018-06-02T03:44:08.280Z,17.20
2018-06-02T03:46:38.242Z,17.10
2018-06-02T03:49:07.616Z,17.20
2018-06-02T03:51:36.228Z,17.20
2018-06-02T03:54:07.098Z,17.10
2018-06-02T03:56:36.026Z,17.20
2018-06-02T03:59:05.546Z,17.20
2018-06-02T04:01:34.424Z,17.20
2018-06-02T04:04:09.366Z,17.20
2018-06-02T04:06:37.925Z,17.20
2018-06-02T04:09:10.125Z,17.20
2018-06-02T04:11:38.943Z,17.20
2018-06-02T04:14:15.444Z,17.30
2018-06-02T04:16:43.992Z,17.40
2018-06-02T04:19:17.184Z,17.40
2018-06-02T04:21:45.487Z,17.40
2018-06-02T04:24:14.876Z,17.50
2018-06-02T04:27:00.811Z,17.50
2018-06-02T04:29:29.254Z,17.50
2018-06-02T04:32:11.080Z,17.50
2018-06-02T04:34:42.871Z,17.50
2018-06-02T04:37:21.588Z,17.60
2018-06-02T04:39:50.477Z,17.60
2018-06-02T04:42:20.430Z,17.60
2018-06-02T04:44:49.342Z,17.60
2018-06-02T04:47:17.794Z,17.50
2018-06-02T04:49:48.122Z,17.60
2018-06-02T04:52:17.238Z,17.60
2018-06-02T04:54:49.045Z,17.60
2018-06-02T04:57:17.590Z,17.70
2018-06-02T04:59:46.530Z,17.70
2018-06-02T05:02:18.009Z,17.70
2018-06-02T05:04:46.050Z,17.70
2018-06-02T05:07:19.763Z,17.90
2018-06-02T05:09:48.705Z,17.90
2018-06-02T05:12:17.795Z,17.90
2018-06-02T05:14:46.769Z,17.90
2018-06-02T05:17:23.547Z,17.90
2018-06-02T05:19:53.435Z,18.00
2018-06-02T05:22:23.255Z,18.00
2018-06-02T05:24:52.799Z,18.00
2018-06-02T05:27:22.365Z,18.10
2018-06-02T05:29:52.181Z,18.00
2018-06-02T05:32:22.021Z,18.10
2018-06-02T05:34:51.713Z,18.10
2018-06-02T05:37:24.630Z,18.20
2018-06-02T05:39:53.776Z,18.30
2018-06-02T05:42:23.032Z,18.30
2018-06-02T05:44:52.377Z,18.50
2018-06-02T05:47:21.493Z,18.60
2018-06-02T05:49:52.073Z,18.70
2018-06-02T05:52:21.280Z,18.70
2018-06-02T05:54:51.738Z,18.70
2018-06-02T05:57:21.258Z,18.70
2018-06-02T05:59:54.812Z,18.60
2018-06-02T06:02:24.649Z,18.70
2018-06-02T06:04:54.552Z,18.60
2018-06-02T06:07:23.712Z,18.70
2018-06-02T06:09:53.532Z,18.70
2018-06-02T06:12:23.321Z,18.70
2018-06-02T06:14:53.060Z,18.70
2018-06-02T06:17:23.683Z,18.70
2018-06-02T06:19:53.354Z,18.70
2018-06-02T06:22:23.115Z,18.70
2018-06-02T06:24:53.027Z,18.70
2018-06-02T06:27:21.588Z,18.70
2018-06-02T06:32:27.532Z,18.70
2018-06-02T06:34:59.168Z,18.80
2018-06-02T06:37:28.703Z,18.80
2018-06-02T06:39:57.564Z,18.80
2018-06-02T06:42:26.036Z,18.90
2018-06-02T06:44:56.962Z,18.80
2018-06-02T06:47:25.628Z,18.90
2018-06-02T06:49:54.442Z,19.10
2018-06-02T06:52:30.511Z,19.30
2018-06-02T06:54:59.652Z,19.60
2018-06-02T06:57:28.731Z,19.60
2018-06-02T06:59:57.067Z,19.60
2018-06-02T07:02:26.623Z,19.50
2018-06-02T07:04:55.871Z,19.50
2018-06-02T07:07:24.375Z,19.50
2018-06-02T07:09:56.466Z,19.50
2018-06-02T07:12:24.840Z,19.30
2018-06-02T07:14:57.726Z,19.20
2018-06-02T07:17:26.158Z,19.20
2018-06-02T07:19:54.668Z,19.10
2018-06-02T07:22:29.072Z,19.00
2018-06-02T07:24:57.553Z,18.90
2018-06-02T07:27:26.683Z,18.90
2018-06-02T07:30:02.010Z,19.00
2018-06-02T07:32:31.067Z,19.00
2018-06-02T07:35:06.917Z,19.10
2018-06-02T07:37:36.253Z,19.20
2018-06-02T07:40:09.432Z,19.10
2018-06-02T07:42:38.367Z,19.20
2018-06-02T07:45:07.673Z,19.20
2018-06-02T07:47:37.675Z,18.60
2018-06-02T07:50:06.798Z,18.50
2018-06-02T07:52:36.008Z,18.30
2018-06-02T07:57:39.672Z,18.30
2018-06-02T08:00:08.763Z,18.40
2018-06-02T08:02:40.205Z,18.80
2018-06-02T08:05:09.263Z,18.80
2018-06-02T08:07:37.984Z,19.20
2018-06-02T08:10:07.010Z,19.60
2018-06-02T08:15:09.505Z,19.70
2018-06-02T08:17:38.573Z,19.80
2018-06-02T08:20:07.644Z,19.80
2018-06-02T08:22:36.620Z,20.00
2018-06-02T08:25:05.661Z,20.50
2018-06-02T08:27:35.589Z,20.90
2018-06-02T08:30:04.481Z,20.80
2018-06-02T08:32:37.655Z,20.70
2018-06-02T08:35:06.007Z,20.50
2018-06-02T08:37:35.128Z,20.40
2018-06-02T08:40:04.153Z,20.40
2018-06-02T08:42:32.968Z,20.50
2018-06-02T08:45:01.620Z,20.80
2018-06-02T08:47:33.997Z,21.20
2018-06-02T08:50:02.703Z,21.40
2018-06-02T08:52:32.819Z,21.20
2018-06-02T08:55:01.535Z,21.10
2018-06-02T08:57:33.783Z,20.90
2018-06-02T09:00:03.337Z,20.80
2018-06-02T09:02:32.697Z,20.80
2018-06-02T09:05:01.494Z,20.80
2018-06-02T09:07:31.783Z,21.00
2018-06-02T09:10:00.659Z,21.00
2018-06-02T09:12:30.789Z,21.30
2018-06-02T09:15:00.349Z,21.40
2018-06-02T09:17:29.877Z,21.40
2018-06-02T09:19:58.767Z,21.50
2018-06-02T09:22:28.657Z,21.70
2018-06-02T09:24:57.598Z,21.90
2018-06-02T09:27:26.325Z,22.00
2018-06-02T09:29:55.355Z,21.90
2018-06-02T09:32:27.158Z,21.90
2018-06-02T09:34:55.548Z,22.00
2018-06-02T09:37:24.488Z,22.20
2018-06-02T09:42:27.708Z,21.70
2018-06-02T09:44:56.667Z,21.50
2018-06-02T09:47:26.156Z,21.50
2018-06-02T09:49:55.598Z,21.50
2018-06-02T09:52:24.394Z,21.50
2018-06-02T09:54:53.928Z,21.60
2018-06-02T09:57:23.069Z,21.50
2018-06-02T09:59:52.048Z,21.30
2018-06-02T10:02:20.896Z,21.50
2018-06-02T10:04:49.619Z,21.80
2018-06-02T10:07:19.284Z,22.10
2018-06-02T10:09:50.730Z,22.10
2018-06-02T10:12:18.964Z,22.70
2018-06-02T10:14:47.485Z,23.20
2018-06-02T10:17:15.733Z,23.40
2018-06-02T10:19:53.689Z,23.20
2018-06-02T10:22:22.131Z,23.40
2018-06-02T10:24:50.237Z,23.50
2018-06-02T10:27:19.679Z,23.00
2018-06-02T10:29:47.577Z,23.10
2018-06-02T10:32:19.903Z,23.50
2018-06-02T10:34:52.134Z,23.50
2018-06-02T10:37:20.294Z,23.90
2018-06-02T10:39:53.127Z,23.60
2018-06-02T10:42:21.266Z,23.60
2018-06-02T10:47:23.672Z,23.20
2018-06-02T10:49:57.871Z,23.10
2018-06-02T10:52:30.016Z,23.10
2018-06-02T10:54:58.400Z,23.20
2018-06-02T10:57:27.245Z,23.20
2018-06-02T10:59:57.775Z,23.00
2018-06-02T11:02:26.096Z,22.90
2018-06-02T11:04:58.241Z,22.90
2018-06-02T11:10:00.854Z,22.80
2018-06-02T11:15:03.473Z,22.50
2018-06-02T11:17:32.002Z,22.50
2018-06-02T11:20:00.274Z,22.50
2018-06-02T11:22:31.530Z,22.40
2018-06-02T11:25:00.115Z,22.30
2018-06-02T11:30:02.719Z,22.70
2018-06-02T11:32:30.777Z,22.70
2018-06-02T11:35:00.406Z,22.50
2018-06-02T11:37:28.889Z,22.70
2018-06-02T11:39:58.421Z,22.60
2018-06-02T11:42:26.476Z,22.80
2018-06-02T11:44:55.235Z,23.00
2018-06-02T11:47:23.713Z,23.30
2018-06-02T11:50:09.109Z,23.70
2018-06-02T11:52:36.801Z,24.10
2018-06-02T11:55:07.620Z,24.40
2018-06-02T11:57:35.219Z,24.40
2018-06-02T12:00:11.872Z,24.20
2018-06-02T12:02:43.906Z,24.40
2018-06-02T12:05:11.850Z,24.20
2018-06-02T12:07:44.504Z,24.10
2018-06-02T12:10:13.062Z,24.30
2018-06-02T12:12:57.675Z,24.30
2018-06-02T12:15:25.266Z,24.40
2018-06-02T12:17:54.393Z,24.50
2018-06-02T12:20:23.005Z,24.50
2018-06-02T12:22:51.684Z,24.50
2018-06-02T12:25:27.557Z,24.50
2018-06-02T12:27:57.822Z,24.30
2018-06-02T12:30:31.918Z,24.30
2018-06-02T12:33:00.095Z,24.20
2018-06-02T12:35:27.720Z,24.10
2018-06-02T12:38:07.802Z,24.20
2018-06-02T12:40:35.845Z,24.20
2018-06-02T12:43:04.324Z,25.00
2018-06-02T12:45:33.247Z,25.40
2018-06-02T12:48:01.401Z,25.40
2018-06-02T12:50:36.574Z,26.00
2018-06-02T12:53:04.540Z,26.80
2018-06-02T12:55:32.932Z,27.30
2018-06-02T12:58:08.995Z,27.60
2018-06-02T13:00:36.990Z,28.10
2018-06-02T13:03:05.260Z,28.10
2018-06-02T13:05:33.438Z,28.10
2018-06-02T13:08:03.256Z,28.80
2018-06-02T13:10:50.010Z,28.80
2018-06-02T13:13:18.236Z,28.90
2018-06-02T13:15:46.428Z,30.00
2018-06-02T13:18:22.195Z,31.10
2018-06-02T13:20:50.432Z,32.20
2018-06-02T13:23:25.406Z,33.50
2018-06-02T13:25:53.560Z,33.80
2018-06-02T13:28:27.232Z,33.40
2018-06-02T13:30:55.064Z,33.30
2018-06-02T13:33:23.261Z,33.60
2018-06-02T13:35:51.186Z,33.60
2018-06-02T13:38:22.996Z,33.80
2018-06-02T13:40:51.116Z,34.00
2018-06-02T13:43:20.917Z,33.00
2018-06-02T13:45:50.320Z,30.80
2018-06-02T13:48:20.103Z,28.90
2018-06-02T13:50:49.104Z,27.80
2018-06-02T13:53:19.136Z,27.10
2018-06-02T13:55:52.235Z,26.30
2018-06-02T13:58:20.469Z,26.30
2018-06-02T14:00:50.999Z,25.90
2018-06-02T14:03:27.493Z,25.60
2018-06-02T14:05:56.536Z,25.40
2018-06-02T14:08:24.148Z,25.10
2018-06-02T14:10:52.429Z,24.90
2018-06-02T14:13:21.916Z,24.90
2018-06-02T14:15:51.683Z,24.90
2018-06-02T14:18:21.626Z,24.70
2018-06-02T14:20:53.611Z,24.60
2018-06-02T14:23:23.182Z,24.40
2018-06-02T14:25:53.708Z,24.30
2018-06-02T14:28:21.994Z,24.40
2018-06-02T14:30:52.654Z,25.70
2018-06-02T14:33:21.876Z,27.40
2018-06-02T14:35:57.369Z,29.80
2018-06-02T14:38:26.612Z,31.60
2018-06-02T14:40:55.761Z,31.70
2018-06-02T14:43:26.811Z,31.30
2018-06-02T14:45:55.976Z,31.00
2018-06-02T14:48:25.930Z,30.40
2018-06-02T14:50:54.656Z,30.40
2018-06-02T14:53:23.208Z,30.20
2018-06-02T14:55:52.943Z,29.70
2018-06-02T14:58:21.769Z,29.70
2018-06-02T15:00:50.009Z,28.60
2018-06-02T15:03:18.482Z,27.60
2018-06-02T15:05:47.145Z,26.50
2018-06-02T15:08:17.833Z,25.60
2018-06-02T15:10:48.995Z,25.00
2018-06-02T15:13:17.496Z,24.80
2018-06-02T15:15:48.638Z,24.60
2018-06-02T15:18:16.250Z,24.50
2018-06-02T15:20:50.133Z,24.20
2018-06-02T15:23:19.251Z,23.70
2018-06-02T15:25:52.336Z,23.70
2018-06-02T15:28:21.132Z,23.90
2018-06-02T15:30:52.222Z,24.10
2018-06-02T15:33:21.140Z,24.20
2018-06-02T15:35:48.752Z,24.30
2018-06-02T15:38:20.472Z,24.40
2018-06-02T15:40:59.630Z,24.70
2018-06-02T15:43:28.794Z,24.70
2018-06-02T15:45:57.524Z,25.30
2018-06-02T15:48:28.548Z,25.40
2018-06-02T15:50:57.682Z,25.50
2018-06-02T15:53:26.395Z,25.80
2018-06-02T15:55:54.008Z,26.40
2018-06-02T15:58:22.367Z,27.70
2018-06-02T16:00:50.225Z,28.30
2018-06-02T16:03:18.194Z,27.80
2018-06-02T16:05:47.039Z,27.70
2018-06-02T16:08:16.261Z,27.70
2018-06-02T16:10:44.485Z,27.10
2018-06-02T16:13:21.128Z,27.10
2018-06-02T16:15:50.511Z,26.60
2018-06-02T16:18:18.073Z,26.70
2018-06-02T16:20:49.234Z,26.70
2018-06-02T16:23:17.705Z,26.40
2018-06-02T16:25:47.170Z,25.70
2018-06-02T16:28:14.756Z,25.70
2018-06-02T16:30:44.234Z,25.60
2018-06-02T16:33:13.124Z,25.60
2018-06-02T16:38:20.102Z,24.80
2018-06-02T16:40:52.233Z,24.10
2018-06-02T16:43:21.256Z,23.80
2018-06-02T16:45:54.561Z,23.60
2018-06-02T16:48:23.535Z,23.60
2018-06-02T16:50:52.555Z,23.40
2018-06-02T16:53:21.175Z,23.10
2018-06-02T16:55:48.741Z,23.00
2018-06-02T16:58:27.725Z,22.90
2018-06-02T17:00:56.838Z,22.80
2018-06-02T17:03:30.401Z,22.80
2018-06-02T17:06:02.312Z,22.70
2018-06-02T17:08:31.966Z,22.50
2018-06-02T17:11:01.313Z,22.40
2018-06-02T17:16:08.601Z,22.40
2018-06-02T17:18:37.914Z,22.40
2018-06-02T17:21:07.516Z,22.30
2018-06-02T17:23:36.754Z,22.30
2018-06-02T17:26:06.174Z,22.20
2018-06-02T17:31:09.232Z,22.10
2018-06-02T17:33:38.410Z,22.10
2018-06-02T17:36:07.644Z,22.00
2018-06-02T17:38:42.012Z,21.90
2018-06-02T17:41:10.679Z,21.90
2018-06-02T17:43:41.109Z,21.90
2018-06-02T17:46:10.543Z,21.90
2018-06-02T17:48:40.286Z,22.00
2018-06-02T17:51:09.978Z,22.10
2018-06-02T17:53:39.362Z,22.10
2018-06-02T17:56:13.132Z,22.10
2018-06-02T17:58:40.800Z,22.20
2018-06-02T18:01:08.360Z,22.10
2018-06-02T18:03:44.186Z,22.10
2018-06-02T18:06:13.508Z,22.00
2018-06-02T18:08:41.802Z,22.00
2018-06-02T18:11:11.700Z,21.90
2018-06-02T18:13:44.084Z,21.90
2018-06-02T18:16:13.852Z,21.80
2018-06-02T18:18:43.156Z,21.80
2018-06-02T18:21:13.190Z,21.70
2018-06-02T18:23:42.502Z,21.60
2018-06-02T18:26:11.748Z,21.50
2018-06-02T18:28:41.028Z,21.50
2018-06-02T18:31:10.460Z,21.50
2018-06-02T18:33:39.312Z,21.40
2018-06-02T18:38:44.799Z,21.40
2018-06-02T18:41:15.035Z,21.30
2018-06-02T18:43:42.947Z,21.20
2018-06-02T18:46:17.323Z,21.10
2018-06-02T18:48:47.112Z,21.00
2018-06-02T18:51:16.249Z,21.00
2018-06-02T18:53:45.510Z,20.90
2018-06-02T18:56:16.304Z,20.80
2018-06-02T18:58:45.290Z,20.80
2018-06-02T19:01:16.572Z,20.80
2018-06-02T19:03:46.279Z,20.80
2018-06-02T19:06:18.657Z,20.80
2018-06-02T19:08:49.099Z,20.90
2018-06-02T19:11:17.115Z,20.70
2018-06-02T19:13:46.639Z,20.70
2018-06-02T19:16:16.265Z,20.60
2018-06-02T19:18:45.851Z,20.50
2018-06-02T19:21:18.682Z,20.50
2018-06-02T19:23:46.241Z,20.50
2018-06-02T19:26:14.647Z,20.50
2018-06-02T19:28:42.795Z,20.50
2018-06-02T19:31:10.501Z,20.60
2018-06-02T19:33:39.600Z,20.40
2018-06-02T19:36:08.817Z,20.30
2018-06-02T19:38:38.869Z,20.20
2018-06-02T19:41:08.780Z,20.20
2018-06-02T19:43:42.830Z,20.30
2018-06-02T19:46:10.904Z,20.20
2018-06-02T19:48:43.979Z,20.20
2018-06-02T19:51:17.453Z,20.30
2018-06-02T19:53:46.617Z,20.30
2018-06-02T19:58:52.156Z,20.30
2018-06-02T20:03:58.482Z,20.20
2018-06-02T20:09:05.727Z,20.20
2018-06-02T20:11:39.057Z,20.30
2018-06-02T20:14:08.185Z,20.30
2018-06-02T20:16:36.401Z,20.20
2018-06-02T20:19:05.443Z,20.10
2018-06-02T20:21:36.441Z,20.10
2018-06-02T20:24:09.543Z,20.10
2018-06-02T20:26:39.250Z,20.10
2018-06-02T20:30:16.577Z,20.10
2018-06-02T20:32:46.922Z,20.10
2018-06-02T20:35:22.673Z,20.10
2018-06-02T20:40:35.783Z,20.20
2018-06-02T20:43:05.236Z,20.20
2018-06-02T20:45:36.815Z,20.10
2018-06-02T20:48:09.798Z,20.10
2018-06-02T20:50:39.821Z,20.10
2018-06-02T20:53:15.286Z,20.10
2018-06-02T20:55:44.506Z,20.10
2018-06-02T20:58:14.195Z,20.10
2018-06-02T21:00:44.229Z,20.00
2018-06-02T21:05:50.684Z,20.00
2018-06-02T21:08:22.891Z,20.00
2018-06-02T21:10:53.219Z,19.90
2018-06-02T21:13:24.643Z,19.90
2018-06-02T21:15:58.945Z,19.80
2018-06-02T21:18:31.520Z,19.80
2018-06-02T21:21:01.770Z,19.80
2018-06-02T21:28:56.230Z,19.90
2018-06-02T21:31:27.365Z,19.80
2018-06-02T21:33:56.664Z,19.80
2018-06-02T21:36:25.737Z,19.80
2018-06-02T21:38:55.390Z,19.80
2018-06-02T21:44:18.902Z,19.80
2018-06-02T21:46:50.527Z,19.70
2018-06-02T21:49:24.594Z,19.60
2018-06-02T21:51:55.408Z,19.50
2018-06-02T21:54:26.683Z,19.40
2018-06-02T21:59:39.826Z,19.30
2018-06-02T22:02:10.026Z,19.30
2018-06-02T22:04:40.884Z,19.20
2018-06-02T22:07:11.228Z,19.30
2018-06-02T22:09:42.007Z,19.30
2018-06-02T22:12:17.693Z,19.30
2018-06-02T22:14:49.254Z,19.30
2018-06-02T22:17:20.280Z,19.30
2018-06-02T22:19:58.196Z,19.30
2018-06-02T22:25:05.287Z,19.30
2018-06-02T22:27:35.641Z,19.30
2018-06-02T22:30:05.996Z,19.20
2018-06-02T22:32:37.210Z,19.20
2018-06-02T22:35:07.884Z,19.10
2018-06-02T22:37:38.439Z,19.00
2018-06-02T22:40:07.970Z,19.10
2018-06-02T22:42:38.522Z,19.10
2018-06-02T22:45:08.962Z,19.20
2018-06-02T22:47:43.795Z,19.20
2018-06-02T22:50:14.057Z,19.10
2018-06-02T22:52:44.561Z,19.20
2018-06-02T22:55:15.067Z,19.20
2018-06-02T22:57:49.848Z,19.20
2018-06-02T23:00:20.932Z,19.20
2018-06-02T23:02:51.776Z,19.20
2018-06-02T23:05:22.237Z,19.10
2018-06-02T23:08:02.722Z,19.10
2018-06-02T23:10:33.500Z,19.10
2018-06-02T23:13:04.203Z,19.00
2018-06-02T23:15:34.153Z,18.90
2018-06-02T23:18:08.704Z,18.80
2018-06-02T23:20:38.760Z,18.80
2018-06-02T23:23:13.585Z,18.70
2018-06-02T23:25:44.132Z,18.70
2018-06-02T23:28:15.577Z,18.70
2018-06-02T23:30:46.824Z,18.60
2018-06-02T23:33:21.113Z,18.60
2018-06-02T23:35:51.458Z,18.60
2018-06-02T23:38:21.720Z,18.60
2018-06-02T23:40:52.007Z,18.50
2018-06-02T23:43:22.525Z,18.50
2018-06-02T23:45:52.819Z,18.40
2018-06-02T23:48:24.161Z,18.30
2018-06-02T23:50:55.962Z,18.20
2018-06-02T23:53:29.971Z,18.20
2018-06-02T23:56:00.110Z,18.10
